sensor_id;sensor_type;location;lat;lon;timestamp;P1;durP1;ratioP1;P2;durP2;ratioP2
14007;SDS011;61651;45.508;12.232;2023-10-09T00:03:22;60.40;;;50.90;;
14007;SDS011;61651;45.508;12.232;2023-10-09T00:06:24;61.67;;;47.95;;
14007;SDS011;61651;45.508;12.232;2023-10-09T00:09:36;65.25;;;52.67;;
14007;SDS011;61651;45.508;12.232;2023-10-09T00:12:46;61.83;;;52.25;;
14007;SDS011;61651;45.508;12.232;2023-10-09T00:15:49;63.03;;;52.45;;
14007;SDS011;61651;45.508;12.232;2023-10-09T00:18:58;64.03;;;51.83;;
14007;SDS011;61651;45.508;12.232;2023-10-09T00:22:14;62.22;;;52.45;;
14007;SDS011;61651;45.508;12.232;2023-10-09T00:25:26;65.57;;;50.40;;
14007;SDS011;61651;45.508;12.232;2023-10-09T00:28:36;61.08;;;48.90;;
14007;SDS011;61651;45.508;12.232;2023-10-09T00:31:41;68.43;;;50.38;;
14007;SDS011;61651;45.508;12.232;2023-10-09T00:34:51;54.67;;;47.47;;
14007;SDS011;61651;45.508;12.232;2023-10-09T00:37:58;58.50;;;49.60;;
14007;SDS011;61651;45.508;12.232;2023-10-09T00:41:07;60.03;;;51.33;;
14007;SDS011;61651;45.508;12.232;2023-10-09T00:44:12;55.70;;;47.08;;
14007;SDS011;61651;45.508;12.232;2023-10-09T00:47:15;58.17;;;48.38;;
14007;SDS011;61651;45.508;12.232;2023-10-09T00:50:28;57.58;;;48.95;;
14007;SDS011;61651;45.508;12.232;2023-10-09T00:53:35;54.38;;;47.70;;
14007;SDS011;61651;45.508;12.232;2023-10-09T00:56:37;63.83;;;50.80;;
14007;SDS011;61651;45.508;12.232;2023-10-09T00:59:43;61.00;;;49.70;;
14007;SDS011;61651;45.508;12.232;2023-10-09T01:02:59;64.35;;;53.22;;
14007;SDS011;61651;45.508;12.232;2023-10-09T01:06:20;60.05;;;49.60;;
14007;SDS011;61651;45.508;12.232;2023-10-09T01:09:28;60.78;;;49.95;;
14007;SDS011;61651;45.508;12.232;2023-10-09T01:12:36;63.10;;;52.33;;
14007;SDS011;61651;45.508;12.232;2023-10-09T01:15:43;65.05;;;52.63;;
14007;SDS011;61651;45.508;12.232;2023-10-09T01:18:48;55.63;;;47.88;;
14007;SDS011;61651;45.508;12.232;2023-10-09T01:21:52;60.20;;;49.75;;
14007;SDS011;61651;45.508;12.232;2023-10-09T01:24:56;63.40;;;51.83;;
14007;SDS011;61651;45.508;12.232;2023-10-09T01:27:57;57.85;;;48.33;;
14007;SDS011;61651;45.508;12.232;2023-10-09T01:30:59;58.67;;;47.58;;
14007;SDS011;61651;45.508;12.232;2023-10-09T01:34:02;66.05;;;50.33;;
14007;SDS011;61651;45.508;12.232;2023-10-09T01:37:10;59.50;;;48.35;;
14007;SDS011;61651;45.508;12.232;2023-10-09T01:40:20;55.55;;;48.55;;
14007;SDS011;61651;45.508;12.232;2023-10-09T01:43:27;54.75;;;48.35;;
14007;SDS011;61651;45.508;12.232;2023-10-09T01:46:29;56.33;;;48.15;;
14007;SDS011;61651;45.508;12.232;2023-10-09T01:49:33;59.17;;;49.00;;
14007;SDS011;61651;45.508;12.232;2023-10-09T01:52:37;58.13;;;47.42;;
14007;SDS011;61651;45.508;12.232;2023-10-09T01:55:41;59.35;;;49.47;;
14007;SDS011;61651;45.508;12.232;2023-10-09T01:58:45;58.70;;;49.05;;
14007;SDS011;61651;45.508;12.232;2023-10-09T02:01:48;56.88;;;49.20;;
14007;SDS011;61651;45.508;12.232;2023-10-09T02:04:50;53.00;;;45.40;;
14007;SDS011;61651;45.508;12.232;2023-10-09T02:07:53;57.60;;;48.97;;
14007;SDS011;61651;45.508;12.232;2023-10-09T02:10:56;56.28;;;48.65;;
14007;SDS011;61651;45.508;12.232;2023-10-09T02:13:58;57.45;;;47.00;;
14007;SDS011;61651;45.508;12.232;2023-10-09T02:17:01;59.45;;;47.42;;
14007;SDS011;61651;45.508;12.232;2023-10-09T02:20:08;60.45;;;50.15;;
14007;SDS011;61651;45.508;12.232;2023-10-09T02:23:18;60.95;;;49.97;;
14007;SDS011;61651;45.508;12.232;2023-10-09T02:26:31;56.47;;;47.53;;
14007;SDS011;61651;45.508;12.232;2023-10-09T02:29:56;59.30;;;51.92;;
14007;SDS011;61651;45.508;12.232;2023-10-09T02:32:58;65.90;;;53.10;;
14007;SDS011;61651;45.508;12.232;2023-10-09T02:36:06;67.38;;;55.00;;
14007;SDS011;61651;45.508;12.232;2023-10-09T02:39:08;56.10;;;48.00;;
14007;SDS011;61651;45.508;12.232;2023-10-09T02:42:24;63.85;;;51.92;;
14007;SDS011;61651;45.508;12.232;2023-10-09T02:45:28;54.63;;;47.35;;
14007;SDS011;61651;45.508;12.232;2023-10-09T02:48:35;51.95;;;46.25;;
14007;SDS011;61651;45.508;12.232;2023-10-09T02:51:37;55.60;;;48.65;;
14007;SDS011;61651;45.508;12.232;2023-10-09T02:54:48;60.95;;;50.90;;
14007;SDS011;61651;45.508;12.232;2023-10-09T02:58:00;59.97;;;48.85;;
14007;SDS011;61651;45.508;12.232;2023-10-09T03:01:11;58.63;;;50.20;;
14007;SDS011;61651;45.508;12.232;2023-10-09T03:04:14;63.75;;;50.50;;
14007;SDS011;61651;45.508;12.232;2023-10-09T03:07:16;65.30;;;52.03;;
14007;SDS011;61651;45.508;12.232;2023-10-09T03:10:18;61.05;;;50.10;;
14007;SDS011;61651;45.508;12.232;2023-10-09T03:13:22;62.78;;;50.58;;
14007;SDS011;61651;45.508;12.232;2023-10-09T03:16:23;61.45;;;50.72;;
14007;SDS011;61651;45.508;12.232;2023-10-09T03:19:27;62.83;;;51.55;;
14007;SDS011;61651;45.508;12.232;2023-10-09T03:22:30;59.83;;;50.42;;
14007;SDS011;61651;45.508;12.232;2023-10-09T03:25:32;62.55;;;51.17;;
14007;SDS011;61651;45.508;12.232;2023-10-09T03:28:36;59.15;;;48.60;;
14007;SDS011;61651;45.508;12.232;2023-10-09T03:31:38;62.17;;;52.42;;
14007;SDS011;61651;45.508;12.232;2023-10-09T03:34:43;60.33;;;50.83;;
14007;SDS011;61651;45.508;12.232;2023-10-09T03:37:45;67.43;;;51.53;;
14007;SDS011;61651;45.508;12.232;2023-10-09T03:40:47;65.50;;;51.83;;
14007;SDS011;61651;45.508;12.232;2023-10-09T03:43:50;64.13;;;51.13;;
14007;SDS011;61651;45.508;12.232;2023-10-09T03:46:52;67.05;;;55.15;;
14007;SDS011;61651;45.508;12.232;2023-10-09T03:49:54;65.65;;;53.15;;
14007;SDS011;61651;45.508;12.232;2023-10-09T03:53:03;65.90;;;53.67;;
14007;SDS011;61651;45.508;12.232;2023-10-09T03:56:08;68.38;;;53.78;;
14007;SDS011;61651;45.508;12.232;2023-10-09T03:59:14;62.83;;;49.38;;
14007;SDS011;61651;45.508;12.232;2023-10-09T04:02:16;61.65;;;52.25;;
14007;SDS011;61651;45.508;12.232;2023-10-09T04:05:18;60.05;;;51.03;;
14007;SDS011;61651;45.508;12.232;2023-10-09T04:08:20;65.55;;;52.08;;
14007;SDS011;61651;45.508;12.232;2023-10-09T04:11:29;60.95;;;51.55;;
14007;SDS011;61651;45.508;12.232;2023-10-09T04:14:34;63.97;;;52.33;;
14007;SDS011;61651;45.508;12.232;2023-10-09T04:17:47;63.63;;;51.70;;
14007;SDS011;61651;45.508;12.232;2023-10-09T04:20:52;62.33;;;52.58;;
14007;SDS011;61651;45.508;12.232;2023-10-09T04:24:16;57.45;;;49.67;;
14007;SDS011;61651;45.508;12.232;2023-10-09T04:27:24;62.20;;;50.08;;
14007;SDS011;61651;45.508;12.232;2023-10-09T04:30:37;59.65;;;48.97;;
14007;SDS011;61651;45.508;12.232;2023-10-09T04:33:43;56.70;;;49.65;;
14007;SDS011;61651;45.508;12.232;2023-10-09T04:36:55;60.75;;;49.85;;
14007;SDS011;61651;45.508;12.232;2023-10-09T04:40:19;64.45;;;49.05;;
14007;SDS011;61651;45.508;12.232;2023-10-09T04:43:35;56.60;;;49.13;;
14007;SDS011;61651;45.508;12.232;2023-10-09T04:46:45;66.03;;;52.22;;
14007;SDS011;61651;45.508;12.232;2023-10-09T04:50:07;61.03;;;49.33;;
14007;SDS011;61651;45.508;12.232;2023-10-09T04:53:12;63.70;;;51.63;;
14007;SDS011;61651;45.508;12.232;2023-10-09T04:56:25;57.67;;;48.55;;
14007;SDS011;61651;45.508;12.232;2023-10-09T04:59:31;57.00;;;47.33;;
14007;SDS011;61651;45.508;12.232;2023-10-09T05:02:47;54.03;;;45.25;;
14007;SDS011;61651;45.508;12.232;2023-10-09T05:05:55;54.85;;;45.95;;
14007;SDS011;61651;45.508;12.232;2023-10-09T05:09:00;56.47;;;47.95;;
14007;SDS011;61651;45.508;12.232;2023-10-09T05:12:13;58.80;;;48.13;;
14007;SDS011;61651;45.508;12.232;2023-10-09T05:15:16;53.53;;;44.55;;
14007;SDS011;61651;45.508;12.232;2023-10-09T05:18:19;55.25;;;44.67;;
14007;SDS011;61651;45.508;12.232;2023-10-09T05:21:33;50.60;;;42.67;;
14007;SDS011;61651;45.508;12.232;2023-10-09T05:24:44;54.50;;;44.10;;
14007;SDS011;61651;45.508;12.232;2023-10-09T05:27:47;48.45;;;42.75;;
14007;SDS011;61651;45.508;12.232;2023-10-09T05:30:51;47.90;;;42.22;;
14007;SDS011;61651;45.508;12.232;2023-10-09T05:34:04;53.53;;;44.50;;
14007;SDS011;61651;45.508;12.232;2023-10-09T05:37:07;54.53;;;45.75;;
14007;SDS011;61651;45.508;12.232;2023-10-09T05:40:17;55.28;;;45.28;;
14007;SDS011;61651;45.508;12.232;2023-10-09T05:43:31;54.83;;;45.20;;
14007;SDS011;61651;45.508;12.232;2023-10-09T05:46:50;53.15;;;44.38;;
14007;SDS011;61651;45.508;12.232;2023-10-09T05:50:24;52.53;;;45.83;;
14007;SDS011;61651;45.508;12.232;2023-10-09T05:53:35;54.00;;;44.97;;
14007;SDS011;61651;45.508;12.232;2023-10-09T05:56:51;55.92;;;45.55;;
14007;SDS011;61651;45.508;12.232;2023-10-09T06:00:30;51.72;;;45.35;;
14007;SDS011;61651;45.508;12.232;2023-10-09T06:03:50;49.97;;;42.90;;
14007;SDS011;61651;45.508;12.232;2023-10-09T06:07:06;53.17;;;44.30;;
14007;SDS011;61651;45.508;12.232;2023-10-09T06:10:14;51.83;;;45.38;;
14007;SDS011;61651;45.508;12.232;2023-10-09T06:13:32;51.13;;;43.33;;
14007;SDS011;61651;45.508;12.232;2023-10-09T06:16:45;50.55;;;43.40;;
14007;SDS011;61651;45.508;12.232;2023-10-09T06:20:00;54.67;;;45.30;;
14007;SDS011;61651;45.508;12.232;2023-10-09T06:23:23;50.80;;;42.42;;
14007;SDS011;61651;45.508;12.232;2023-10-09T06:26:45;49.75;;;42.90;;
14007;SDS011;61651;45.508;12.232;2023-10-09T06:30:07;50.47;;;42.85;;
14007;SDS011;61651;45.508;12.232;2023-10-09T06:33:24;47.83;;;40.55;;
14007;SDS011;61651;45.508;12.232;2023-10-09T06:36:29;47.53;;;40.55;;
14007;SDS011;61651;45.508;12.232;2023-10-09T06:39:35;47.55;;;40.45;;
14007;SDS011;61651;45.508;12.232;2023-10-09T06:43:11;45.95;;;39.70;;
14007;SDS011;61651;45.508;12.232;2023-10-09T06:46:26;41.67;;;37.30;;
14007;SDS011;61651;45.508;12.232;2023-10-09T06:49:52;44.22;;;39.47;;
14007;SDS011;61651;45.508;12.232;2023-10-09T06:53:08;41.55;;;37.15;;
14007;SDS011;61651;45.508;12.232;2023-10-09T06:56:27;44.20;;;36.53;;
14007;SDS011;61651;45.508;12.232;2023-10-09T06:59:50;38.85;;;34.70;;
14007;SDS011;61651;45.508;12.232;2023-10-09T07:03:09;37.70;;;33.55;;
14007;SDS011;61651;45.508;12.232;2023-10-09T07:06:12;35.15;;;31.00;;
14007;SDS011;61651;45.508;12.232;2023-10-09T07:09:23;36.80;;;30.95;;
14007;SDS011;61651;45.508;12.232;2023-10-09T07:12:43;31.52;;;28.13;;
14007;SDS011;61651;45.508;12.232;2023-10-09T07:15:44;32.83;;;28.60;;
14007;SDS011;61651;45.508;12.232;2023-10-09T07:19:04;33.22;;;27.58;;
14007;SDS011;61651;45.508;12.232;2023-10-09T07:22:25;30.13;;;25.63;;
14007;SDS011;61651;45.508;12.232;2023-10-09T07:25:39;33.25;;;26.15;;
14007;SDS011;61651;45.508;12.232;2023-10-09T07:28:56;31.67;;;25.67;;
14007;SDS011;61651;45.508;12.232;2023-10-09T07:32:16;27.98;;;24.02;;
14007;SDS011;61651;45.508;12.232;2023-10-09T07:35:21;27.25;;;24.40;;
14007;SDS011;61651;45.508;12.232;2023-10-09T07:38:46;28.02;;;24.23;;
14007;SDS011;61651;45.508;12.232;2023-10-09T07:41:55;23.33;;;20.83;;
14007;SDS011;61651;45.508;12.232;2023-10-09T07:45:03;24.23;;;21.63;;
14007;SDS011;61651;45.508;12.232;2023-10-09T07:48:32;24.80;;;22.10;;
14007;SDS011;61651;45.508;12.232;2023-10-09T07:51:40;27.90;;;23.52;;
14007;SDS011;61651;45.508;12.232;2023-10-09T07:54:43;26.13;;;23.13;;
14007;SDS011;61651;45.508;12.232;2023-10-09T07:57:53;25.15;;;22.55;;
14007;SDS011;61651;45.508;12.232;2023-10-09T08:00:57;24.75;;;22.20;;
14007;SDS011;61651;45.508;12.232;2023-10-09T08:04:08;25.17;;;22.60;;
14007;SDS011;61651;45.508;12.232;2023-10-09T08:07:12;22.50;;;20.27;;
14007;SDS011;61651;45.508;12.232;2023-10-09T08:10:19;23.15;;;19.27;;
14007;SDS011;61651;45.508;12.232;2023-10-09T08:13:38;20.88;;;18.63;;
14007;SDS011;61651;45.508;12.232;2023-10-09T08:16:58;20.52;;;17.35;;
14007;SDS011;61651;45.508;12.232;2023-10-09T08:20:11;20.67;;;16.85;;
14007;SDS011;61651;45.508;12.232;2023-10-09T08:23:17;18.35;;;15.65;;
14007;SDS011;61651;45.508;12.232;2023-10-09T08:26:29;17.38;;;15.43;;
14007;SDS011;61651;45.508;12.232;2023-10-09T08:29:47;17.38;;;14.98;;
14007;SDS011;61651;45.508;12.232;2023-10-09T08:32:49;19.10;;;15.20;;
14007;SDS011;61651;45.508;12.232;2023-10-09T08:36:02;20.08;;;14.90;;
14007;SDS011;61651;45.508;12.232;2023-10-09T08:39:04;17.58;;;14.27;;
14007;SDS011;61651;45.508;12.232;2023-10-09T08:42:17;18.67;;;14.80;;
14007;SDS011;61651;45.508;12.232;2023-10-09T08:45:21;14.88;;;13.43;;
14007;SDS011;61651;45.508;12.232;2023-10-09T08:48:29;18.23;;;16.33;;
14007;SDS011;61651;45.508;12.232;2023-10-09T08:51:32;15.30;;;12.75;;
14007;SDS011;61651;45.508;12.232;2023-10-09T08:54:35;18.70;;;15.73;;
14007;SDS011;61651;45.508;12.232;2023-10-09T08:57:38;19.70;;;14.77;;
14007;SDS011;61651;45.508;12.232;2023-10-09T09:00:41;19.98;;;15.93;;
14007;SDS011;61651;45.508;12.232;2023-10-09T09:03:48;19.92;;;17.00;;
14007;SDS011;61651;45.508;12.232;2023-10-09T09:06:51;22.23;;;19.33;;
14007;SDS011;61651;45.508;12.232;2023-10-09T09:09:54;29.35;;;23.77;;
14007;SDS011;61651;45.508;12.232;2023-10-09T09:13:00;24.55;;;20.58;;
14007;SDS011;61651;45.508;12.232;2023-10-09T09:16:03;31.40;;;18.60;;
14007;SDS011;61651;45.508;12.232;2023-10-09T09:19:08;21.52;;;17.00;;
14007;SDS011;61651;45.508;12.232;2023-10-09T09:22:18;27.45;;;20.40;;
14007;SDS011;61651;45.508;12.232;2023-10-09T09:25:21;28.90;;;23.52;;
14007;SDS011;61651;45.508;12.232;2023-10-09T09:28:25;29.00;;;25.30;;
14007;SDS011;61651;45.508;12.232;2023-10-09T09:31:33;25.35;;;22.70;;
14007;SDS011;61651;45.508;12.232;2023-10-09T09:34:44;26.90;;;23.75;;
14007;SDS011;61651;45.508;12.232;2023-10-09T09:37:52;33.17;;;26.02;;
14007;SDS011;61651;45.508;12.232;2023-10-09T09:40:56;36.15;;;30.85;;
14007;SDS011;61651;45.508;12.232;2023-10-09T09:44:02;30.00;;;26.77;;
14007;SDS011;61651;45.508;12.232;2023-10-09T09:47:06;31.48;;;27.58;;
14007;SDS011;61651;45.508;12.232;2023-10-09T09:50:10;37.58;;;32.33;;
14007;SDS011;61651;45.508;12.232;2023-10-09T09:53:18;36.38;;;31.88;;
14007;SDS011;61651;45.508;12.232;2023-10-09T09:56:24;42.28;;;35.97;;
14007;SDS011;61651;45.508;12.232;2023-10-09T09:59:26;36.72;;;31.52;;
14007;SDS011;61651;45.508;12.232;2023-10-09T10:02:35;38.88;;;31.90;;
14007;SDS011;61651;45.508;12.232;2023-10-09T10:05:40;36.30;;;29.52;;
14007;SDS011;61651;45.508;12.232;2023-10-09T10:08:47;38.08;;;31.15;;
14007;SDS011;61651;45.508;12.232;2023-10-09T10:11:51;34.92;;;29.80;;
14007;SDS011;61651;45.508;12.232;2023-10-09T10:14:53;35.67;;;31.88;;
14007;SDS011;61651;45.508;12.232;2023-10-09T10:18:08;39.53;;;32.75;;
14007;SDS011;61651;45.508;12.232;2023-10-09T10:21:20;36.65;;;31.60;;
14007;SDS011;61651;45.508;12.232;2023-10-09T10:24:42;42.07;;;35.67;;
14007;SDS011;61651;45.508;12.232;2023-10-09T10:27:59;32.95;;;28.25;;
14007;SDS011;61651;45.508;12.232;2023-10-09T10:34:56;38.53;;;34.20;;
14007;SDS011;61651;45.508;12.232;2023-10-09T10:37:59;36.33;;;32.30;;
14007;SDS011;61651;45.508;12.232;2023-10-09T10:41:12;38.88;;;31.65;;
14007;SDS011;61651;45.508;12.232;2023-10-09T10:44:27;39.65;;;33.47;;
14007;SDS011;61651;45.508;12.232;2023-10-09T10:47:37;36.67;;;31.40;;
14007;SDS011;61651;45.508;12.232;2023-10-09T10:50:40;40.83;;;33.60;;
14007;SDS011;61651;45.508;12.232;2023-10-09T10:53:53;40.15;;;34.80;;
14007;SDS011;61651;45.508;12.232;2023-10-09T10:56:57;38.47;;;34.28;;
14007;SDS011;61651;45.508;12.232;2023-10-09T11:00:00;36.10;;;31.00;;
14007;SDS011;61651;45.508;12.232;2023-10-09T11:03:17;34.60;;;30.58;;
14007;SDS011;61651;45.508;12.232;2023-10-09T11:06:24;37.58;;;30.52;;
14007;SDS011;61651;45.508;12.232;2023-10-09T11:09:46;39.75;;;33.33;;
14007;SDS011;61651;45.508;12.232;2023-10-09T11:13:03;45.67;;;35.15;;
14007;SDS011;61651;45.508;12.232;2023-10-09T11:16:23;37.85;;;32.58;;
14007;SDS011;61651;45.508;12.232;2023-10-09T11:19:41;38.92;;;31.17;;
14007;SDS011;61651;45.508;12.232;2023-10-09T11:22:43;36.75;;;32.15;;
14007;SDS011;61651;45.508;12.232;2023-10-09T11:26:07;36.03;;;31.67;;
14007;SDS011;61651;45.508;12.232;2023-10-09T11:29:26;34.97;;;31.35;;
14007;SDS011;61651;45.508;12.232;2023-10-09T11:32:32;36.67;;;32.45;;
14007;SDS011;61651;45.508;12.232;2023-10-09T11:35:38;38.75;;;32.63;;
14007;SDS011;61651;45.508;12.232;2023-10-09T11:38:43;44.33;;;33.80;;
14007;SDS011;61651;45.508;12.232;2023-10-09T11:41:47;42.75;;;34.03;;
14007;SDS011;61651;45.508;12.232;2023-10-09T11:44:49;39.80;;;35.30;;
14007;SDS011;61651;45.508;12.232;2023-10-09T11:47:55;40.03;;;33.15;;
14007;SDS011;61651;45.508;12.232;2023-10-09T11:50:59;35.83;;;32.13;;
14007;SDS011;61651;45.508;12.232;2023-10-09T11:54:28;32.97;;;28.02;;
14007;SDS011;61651;45.508;12.232;2023-10-09T11:57:33;32.35;;;29.05;;
14007;SDS011;61651;45.508;12.232;2023-10-09T12:00:35;35.60;;;29.10;;
14007;SDS011;61651;45.508;12.232;2023-10-09T12:03:46;33.83;;;29.40;;
14007;SDS011;61651;45.508;12.232;2023-10-09T12:06:51;33.88;;;28.98;;
14007;SDS011;61651;45.508;12.232;2023-10-09T12:10:06;38.47;;;30.83;;
14007;SDS011;61651;45.508;12.232;2023-10-09T12:13:11;33.22;;;29.65;;
14007;SDS011;61651;45.508;12.232;2023-10-09T12:16:15;33.45;;;26.98;;
14007;SDS011;61651;45.508;12.232;2023-10-09T12:19:17;36.78;;;26.05;;
14007;SDS011;61651;45.508;12.232;2023-10-09T12:22:19;32.20;;;26.92;;
14007;SDS011;61651;45.508;12.232;2023-10-09T12:25:21;30.38;;;25.48;;
14007;SDS011;61651;45.508;12.232;2023-10-09T12:28:25;30.60;;;26.65;;
14007;SDS011;61651;45.508;12.232;2023-10-09T12:31:28;37.20;;;28.70;;
14007;SDS011;61651;45.508;12.232;2023-10-09T12:34:34;34.78;;;28.58;;
14007;SDS011;61651;45.508;12.232;2023-10-09T12:37:38;34.13;;;29.83;;
14007;SDS011;61651;45.508;12.232;2023-10-09T12:40:43;33.15;;;29.08;;
14007;SDS011;61651;45.508;12.232;2023-10-09T12:43:52;42.40;;;32.05;;
14007;SDS011;61651;45.508;12.232;2023-10-09T12:46:54;32.50;;;29.05;;
14007;SDS011;61651;45.508;12.232;2023-10-09T12:49:57;30.38;;;26.25;;
14007;SDS011;61651;45.508;12.232;2023-10-09T12:52:59;34.47;;;30.50;;
14007;SDS011;61651;45.508;12.232;2023-10-09T12:56:06;29.77;;;26.58;;
14007;SDS011;61651;45.508;12.232;2023-10-09T12:59:10;31.05;;;26.83;;
14007;SDS011;61651;45.508;12.232;2023-10-09T13:02:14;66.95;;;28.95;;
14007;SDS011;61651;45.508;12.232;2023-10-09T13:05:28;36.83;;;26.45;;
14007;SDS011;61651;45.508;12.232;2023-10-09T13:08:30;28.13;;;23.70;;
14007;SDS011;61651;45.508;12.232;2023-10-09T13:11:35;54.13;;;26.75;;
14007;SDS011;61651;45.508;12.232;2023-10-09T13:14:39;30.15;;;26.10;;
14007;SDS011;61651;45.508;12.232;2023-10-09T13:17:41;39.35;;;25.98;;
14007;SDS011;61651;45.508;12.232;2023-10-09T13:20:43;29.95;;;25.85;;
14007;SDS011;61651;45.508;12.232;2023-10-09T13:23:45;27.38;;;24.42;;
14007;SDS011;61651;45.508;12.232;2023-10-09T13:26:50;59.00;;;29.55;;
14007;SDS011;61651;45.508;12.232;2023-10-09T13:29:59;39.63;;;31.25;;
14007;SDS011;61651;45.508;12.232;2023-10-09T13:33:05;34.35;;;30.83;;
14007;SDS011;61651;45.508;12.232;2023-10-09T13:36:08;35.83;;;30.85;;
14007;SDS011;61651;45.508;12.232;2023-10-09T13:39:16;34.25;;;30.73;;
14007;SDS011;61651;45.508;12.232;2023-10-09T13:42:24;33.38;;;28.70;;
14007;SDS011;61651;45.508;12.232;2023-10-09T13:45:28;33.80;;;26.52;;
14007;SDS011;61651;45.508;12.232;2023-10-09T13:48:30;33.50;;;27.00;;
14007;SDS011;61651;45.508;12.232;2023-10-09T13:51:39;37.63;;;29.25;;
14007;SDS011;61651;45.508;12.232;2023-10-09T13:54:43;36.33;;;32.35;;
14007;SDS011;61651;45.508;12.232;2023-10-09T13:57:48;32.63;;;27.17;;
14007;SDS011;61651;45.508;12.232;2023-10-09T14:00:51;31.77;;;27.33;;
14007;SDS011;61651;45.508;12.232;2023-10-09T14:03:56;34.72;;;30.70;;
14007;SDS011;61651;45.508;12.232;2023-10-09T14:06:59;34.45;;;27.98;;
14007;SDS011;61651;45.508;12.232;2023-10-09T14:10:05;28.92;;;25.83;;
14007;SDS011;61651;45.508;12.232;2023-10-09T14:13:17;29.10;;;26.00;;
14007;SDS011;61651;45.508;12.232;2023-10-09T14:16:27;29.02;;;25.50;;
14007;SDS011;61651;45.508;12.232;2023-10-09T14:19:32;29.13;;;24.25;;
14007;SDS011;61651;45.508;12.232;2023-10-09T14:22:35;29.13;;;26.13;;
14007;SDS011;61651;45.508;12.232;2023-10-09T14:25:38;29.45;;;26.45;;
14007;SDS011;61651;45.508;12.232;2023-10-09T14:28:40;30.00;;;26.65;;
14007;SDS011;61651;45.508;12.232;2023-10-09T14:31:44;30.05;;;26.98;;
14007;SDS011;61651;45.508;12.232;2023-10-09T14:35:00;29.90;;;26.17;;
14007;SDS011;61651;45.508;12.232;2023-10-09T14:38:02;32.72;;;28.20;;
14007;SDS011;61651;45.508;12.232;2023-10-09T14:41:11;33.42;;;27.63;;
14007;SDS011;61651;45.508;12.232;2023-10-09T14:44:13;32.30;;;29.10;;
14007;SDS011;61651;45.508;12.232;2023-10-09T14:47:17;35.85;;;28.35;;
14007;SDS011;61651;45.508;12.232;2023-10-09T14:50:21;35.67;;;31.92;;
14007;SDS011;61651;45.508;12.232;2023-10-09T14:53:23;36.38;;;30.05;;
14007;SDS011;61651;45.508;12.232;2023-10-09T14:56:27;33.00;;;26.98;;
14007;SDS011;61651;45.508;12.232;2023-10-09T14:59:36;43.97;;;29.25;;
14007;SDS011;61651;45.508;12.232;2023-10-09T15:02:39;33.47;;;29.23;;
14007;SDS011;61651;45.508;12.232;2023-10-09T15:05:41;34.63;;;29.20;;
14007;SDS011;61651;45.508;12.232;2023-10-09T15:08:43;34.15;;;29.67;;
14007;SDS011;61651;45.508;12.232;2023-10-09T15:11:46;32.40;;;28.92;;
14007;SDS011;61651;45.508;12.232;2023-10-09T15:14:49;31.02;;;27.40;;
14007;SDS011;61651;45.508;12.232;2023-10-09T15:17:55;33.45;;;29.42;;
14007;SDS011;61651;45.508;12.232;2023-10-09T15:20:57;40.28;;;33.15;;
14007;SDS011;61651;45.508;12.232;2023-10-09T15:23:59;36.63;;;32.75;;
14007;SDS011;61651;45.508;12.232;2023-10-09T15:27:01;38.10;;;32.17;;
14007;SDS011;61651;45.508;12.232;2023-10-09T15:30:06;36.42;;;32.42;;
14007;SDS011;61651;45.508;12.232;2023-10-09T15:33:15;38.80;;;34.38;;
14007;SDS011;61651;45.508;12.232;2023-10-09T15:36:18;38.47;;;32.13;;
14007;SDS011;61651;45.508;12.232;2023-10-09T15:39:23;33.60;;;30.13;;
14007;SDS011;61651;45.508;12.232;2023-10-09T15:42:25;36.90;;;32.95;;
14007;SDS011;61651;45.508;12.232;2023-10-09T15:45:28;37.10;;;32.85;;
14007;SDS011;61651;45.508;12.232;2023-10-09T15:48:31;37.08;;;33.28;;
14007;SDS011;61651;45.508;12.232;2023-10-09T15:51:33;37.00;;;32.85;;
14007;SDS011;61651;45.508;12.232;2023-10-09T15:54:35;37.80;;;33.70;;
14007;SDS011;61651;45.508;12.232;2023-10-09T15:57:37;40.10;;;33.58;;
14007;SDS011;61651;45.508;12.232;2023-10-09T16:00:39;41.40;;;36.88;;
14007;SDS011;61651;45.508;12.232;2023-10-09T16:03:47;41.78;;;33.78;;
14007;SDS011;61651;45.508;12.232;2023-10-09T16:06:49;43.90;;;37.30;;
14007;SDS011;61651;45.508;12.232;2023-10-09T16:09:52;42.75;;;35.25;;
14007;SDS011;61651;45.508;12.232;2023-10-09T16:12:55;42.10;;;36.15;;
14007;SDS011;61651;45.508;12.232;2023-10-09T16:15:57;40.97;;;34.15;;
14007;SDS011;61651;45.508;12.232;2023-10-09T16:19:02;42.70;;;38.03;;
14007;SDS011;61651;45.508;12.232;2023-10-09T16:22:04;42.92;;;36.92;;
14007;SDS011;61651;45.508;12.232;2023-10-09T16:25:06;42.33;;;37.78;;
14007;SDS011;61651;45.508;12.232;2023-10-09T16:28:09;41.17;;;36.75;;
14007;SDS011;61651;45.508;12.232;2023-10-09T16:31:11;42.90;;;37.45;;
14007;SDS011;61651;45.508;12.232;2023-10-09T16:34:20;46.47;;;36.70;;
14007;SDS011;61651;45.508;12.232;2023-10-09T16:37:26;44.85;;;38.28;;
14007;SDS011;61651;45.508;12.232;2023-10-09T16:40:28;42.78;;;38.30;;
14007;SDS011;61651;45.508;12.232;2023-10-09T16:43:31;42.00;;;37.45;;
14007;SDS011;61651;45.508;12.232;2023-10-09T16:46:34;43.00;;;36.95;;
14007;SDS011;61651;45.508;12.232;2023-10-09T16:49:38;42.33;;;36.72;;
14007;SDS011;61651;45.508;12.232;2023-10-09T16:52:42;48.08;;;36.97;;
14007;SDS011;61651;45.508;12.232;2023-10-09T16:55:44;44.65;;;37.63;;
14007;SDS011;61651;45.508;12.232;2023-10-09T16:58:46;41.35;;;36.88;;
14007;SDS011;61651;45.508;12.232;2023-10-09T17:01:48;43.70;;;38.85;;
14007;SDS011;61651;45.508;12.232;2023-10-09T17:04:52;58.65;;;39.35;;
14007;SDS011;61651;45.508;12.232;2023-10-09T17:07:55;44.83;;;38.20;;
14007;SDS011;61651;45.508;12.232;2023-10-09T17:10:58;44.42;;;39.20;;
14007;SDS011;61651;45.508;12.232;2023-10-09T17:14:03;43.38;;;38.75;;
14007;SDS011;61651;45.508;12.232;2023-10-09T17:17:06;44.05;;;39.33;;
14007;SDS011;61651;45.508;12.232;2023-10-09T17:20:10;49.60;;;41.33;;
14007;SDS011;61651;45.508;12.232;2023-10-09T17:23:12;47.50;;;40.40;;
14007;SDS011;61651;45.508;12.232;2023-10-09T17:26:16;47.75;;;42.55;;
14007;SDS011;61651;45.508;12.232;2023-10-09T17:29:19;48.55;;;41.08;;
14007;SDS011;61651;45.508;12.232;2023-10-09T17:32:21;51.20;;;43.72;;
14007;SDS011;61651;45.508;12.232;2023-10-09T17:35:24;53.08;;;45.58;;
14007;SDS011;61651;45.508;12.232;2023-10-09T17:38:27;47.22;;;42.13;;
14007;SDS011;61651;45.508;12.232;2023-10-09T17:41:31;48.83;;;41.72;;
14007;SDS011;61651;45.508;12.232;2023-10-09T17:44:35;48.30;;;42.00;;
14007;SDS011;61651;45.508;12.232;2023-10-09T17:47:38;49.85;;;42.08;;
14007;SDS011;61651;45.508;12.232;2023-10-09T17:50:45;51.53;;;42.05;;
14007;SDS011;61651;45.508;12.232;2023-10-09T17:53:47;53.90;;;44.05;;
14007;SDS011;61651;45.508;12.232;2023-10-09T17:56:49;50.42;;;44.47;;
14007;SDS011;61651;45.508;12.232;2023-10-09T17:59:52;55.70;;;48.13;;
14007;SDS011;61651;45.508;12.232;2023-10-09T18:02:56;55.05;;;46.60;;
14007;SDS011;61651;45.508;12.232;2023-10-09T18:06:00;52.17;;;46.63;;